createdAt,value
2018-03-03T00:01:10.092Z,98.10
2018-03-03T00:03:38.339Z,99.27
2018-03-03T00:06:05.848Z,100.20
2018-03-03T00:08:33.340Z,98.27
2018-03-03T00:11:00.850Z,97.90
2018-03-03T00:13:28.340Z,99.90
2018-03-03T00:15:55.855Z,96.23
2018-03-03T00:18:23.345Z,100.37
2018-03-03T00:20:50.871Z,96.50
2018-03-03T00:23:19.129Z,97.97
2018-03-03T00:25:46.619Z,120.60
2018-03-03T00:28:14.128Z,114.73
2018-03-03T00:30:41.620Z,104.10
2018-03-03T00:33:09.136Z,101.70
2018-03-03T00:35:37.396Z,102.90
2018-03-03T00:38:04.907Z,105.37
2018-03-03T00:40:33.160Z,111.27
2018-03-03T00:43:00.667Z,100.60
2018-03-03T00:45:28.923Z,99.27
2018-03-03T00:47:56.430Z,93.53
2018-03-03T00:50:23.941Z,100.20
2018-03-03T00:52:51.442Z,104.90
2018-03-03T00:55:18.960Z,108.87
2018-03-03T00:57:46.454Z,106.07
2018-03-03T01:00:13.968Z,109.17
2018-03-03T01:02:42.228Z,88.57
2018-03-03T01:05:09.740Z,98.10
2018-03-03T01:07:37.232Z,98.37
2018-03-03T01:10:04.720Z,91.73
2018-03-03T01:12:32.232Z,107.43
2018-03-03T01:15:00.488Z,97.40
2018-03-03T01:17:28.000Z,102.87
2018-03-03T01:19:56.265Z,104.50
2018-03-03T01:22:23.782Z,112.30
2018-03-03T01:24:52.037Z,98.87
2018-03-03T01:27:20.312Z,111.00
2018-03-03T01:29:47.812Z,113.83
2018-03-03T01:32:15.325Z,113.33
2018-03-03T01:34:46.171Z,115.20
2018-03-03T01:37:13.684Z,110.57
2018-03-03T01:39:41.940Z,112.60
2018-03-03T01:42:09.448Z,110.00
2018-03-03T01:44:37.705Z,114.13
2018-03-03T01:47:05.220Z,118.33
2018-03-03T01:49:32.708Z,102.43
2018-03-03T01:52:00.209Z,119.63
2018-03-03T01:54:27.720Z,118.77
2018-03-03T01:56:55.976Z,127.23
2018-03-03T01:59:23.528Z,113.97
2018-03-03T02:01:51.024Z,106.30
2018-03-03T02:04:18.540Z,110.53
2018-03-03T02:06:46.033Z,116.33
2018-03-03T02:09:13.543Z,119.27
2018-03-03T02:11:41.032Z,110.57
2018-03-03T02:14:09.308Z,114.83
2018-03-03T02:16:36.804Z,118.37
2018-03-03T02:19:04.355Z,117.77
2018-03-03T02:21:31.821Z,126.53
2018-03-03T02:23:59.312Z,115.17
2018-03-03T02:26:26.825Z,109.10
2018-03-03T02:28:54.310Z,114.63
2018-03-03T02:31:21.822Z,117.43
2018-03-03T02:33:49.319Z,112.53
2018-03-03T02:36:16.842Z,109.83
2018-03-03T02:38:45.092Z,120.30
2018-03-03T02:41:12.606Z,118.53
2018-03-03T02:43:40.855Z,121.73
2018-03-03T02:46:08.355Z,107.00
2018-03-03T02:48:35.838Z,127.80
2018-03-03T02:51:04.117Z,112.57
2018-03-03T02:53:32.379Z,96.77
2018-03-03T02:55:59.879Z,113.60
2018-03-03T02:58:28.155Z,123.13
2018-03-03T03:00:55.639Z,120.47
2018-03-03T03:03:23.926Z,113.73
2018-03-03T03:05:52.187Z,125.63
2018-03-03T03:08:19.700Z,132.57
2018-03-03T03:10:47.960Z,114.57
2018-03-03T03:13:15.476Z,117.63
2018-03-03T03:15:42.968Z,120.57
2018-03-03T03:18:10.474Z,126.20
2018-03-03T03:20:37.987Z,118.17
2018-03-03T03:23:05.472Z,118.97
2018-03-03T03:25:32.975Z,132.37
2018-03-03T03:28:00.469Z,120.47
2018-03-03T03:30:28.750Z,107.30
2018-03-03T03:32:57.011Z,126.03
2018-03-03T03:35:24.519Z,124.23
2018-03-03T03:37:52.776Z,115.47
2018-03-03T03:40:20.291Z,122.17
2018-03-03T03:42:47.789Z,104.50
2018-03-03T03:45:15.280Z,116.20
2018-03-03T03:47:42.789Z,118.00
2018-03-03T03:50:11.039Z,126.27
2018-03-03T03:52:38.549Z,120.90
2018-03-03T03:55:06.809Z,126.50
2018-03-03T03:57:34.319Z,116.87
2018-03-03T04:00:01.804Z,111.33
2018-03-03T04:02:29.316Z,127.67
2018-03-03T04:04:56.814Z,110.00
2018-03-03T04:07:25.095Z,110.60
2018-03-03T04:09:53.351Z,119.60
2018-03-03T04:12:20.845Z,119.70
2018-03-03T04:14:48.353Z,121.27
2018-03-03T04:17:15.845Z,123.27
2018-03-03T04:19:43.361Z,118.40
2018-03-03T04:22:10.842Z,114.43
2018-03-03T04:24:38.351Z,119.47
2018-03-03T04:27:05.843Z,111.37
2018-03-03T04:29:33.351Z,115.40
2018-03-03T04:32:00.836Z,110.43
2018-03-03T04:34:29.108Z,104.60
2018-03-03T04:36:57.360Z,119.17
2018-03-03T04:39:24.876Z,116.60
2018-03-03T04:41:53.139Z,118.67
2018-03-03T04:44:20.652Z,113.00
2018-03-03T04:46:48.157Z,112.10
2018-03-03T04:49:15.658Z,124.33
2018-03-03T04:51:43.176Z,128.10
2018-03-03T04:54:10.673Z,113.63
2018-03-03T04:56:38.196Z,116.57
2018-03-03T04:59:07.275Z,117.90
2018-03-03T05:01:40.503Z,107.07
2018-03-03T05:07:23.916Z,93.57
2018-03-03T05:09:51.404Z,108.87
2018-03-03T05:12:20.824Z,119.17
2018-03-03T05:14:50.959Z,110.93
2018-03-03T05:17:24.156Z,116.33
2018-03-03T05:19:57.388Z,105.00
2018-03-03T05:22:30.611Z,107.63
2018-03-03T05:28:29.567Z,115.80
2018-03-03T05:31:12.956Z,119.30
2018-03-03T05:33:46.158Z,102.13
2018-03-03T05:36:19.484Z,113.40
2018-03-03T05:38:52.707Z,99.30
2018-03-03T05:44:33.054Z,111.17
2018-03-03T05:50:17.900Z,112.80
2018-03-03T05:52:47.831Z,101.93
2018-03-03T05:55:16.119Z,109.53
2018-03-03T05:57:50.138Z,109.47
2018-03-03T06:03:36.936Z,108.90
2018-03-03T06:06:10.790Z,103.20
2018-03-03T06:08:44.135Z,99.67
2018-03-03T06:11:11.624Z,113.07
2018-03-03T06:13:39.899Z,108.57
2018-03-03T06:16:07.389Z,105.43
2018-03-03T06:18:35.668Z,113.33
2018-03-03T06:21:03.183Z,115.70
2018-03-03T06:23:30.683Z,100.93
2018-03-03T06:25:58.196Z,123.13
2018-03-03T06:28:26.450Z,113.83
2018-03-03T06:30:53.965Z,105.53
2018-03-03T06:33:21.457Z,110.47
2018-03-03T06:35:48.964Z,115.27
2018-03-03T06:38:16.455Z,112.50
2018-03-03T06:40:44.732Z,111.63
2018-03-03T06:43:12.215Z,112.10
2018-03-03T06:45:40.482Z,89.00
2018-03-03T06:48:07.965Z,98.50
2018-03-03T06:50:36.245Z,111.83
2018-03-03T06:53:03.743Z,110.20
2018-03-03T06:55:31.990Z,98.37
2018-03-03T06:57:59.504Z,103.63
2018-03-03T07:00:27.001Z,101.43
2018-03-03T07:02:54.507Z,112.63
2018-03-03T07:05:22.007Z,96.37
2018-03-03T07:07:50.284Z,101.80
2018-03-03T07:10:18.539Z,98.83
2018-03-03T07:12:46.043Z,107.67
2018-03-03T07:15:14.301Z,103.67
2018-03-03T07:17:41.816Z,104.63
2018-03-03T07:20:10.071Z,100.50
2018-03-03T07:22:37.594Z,105.37
2018-03-03T07:25:05.080Z,102.43
2018-03-03T07:27:32.563Z,105.20
2018-03-03T07:30:00.070Z,111.17
2018-03-03T07:32:28.336Z,100.40
2018-03-03T07:34:55.843Z,99.60
2018-03-03T07:37:24.092Z,103.73
2018-03-03T07:39:51.594Z,97.10
2018-03-03T07:42:19.852Z,103.27
2018-03-03T07:44:47.363Z,107.03
2018-03-03T07:47:14.838Z,108.70
2018-03-03T07:49:42.344Z,100.57
2018-03-03T07:52:09.844Z,103.20
2018-03-03T07:54:37.348Z,102.07
2018-03-03T07:57:11.575Z,99.13
2018-03-03T07:59:39.104Z,100.53
2018-03-03T08:02:06.667Z,102.83
2018-03-03T08:04:34.151Z,102.87
2018-03-03T08:07:01.652Z,108.57
2018-03-03T08:09:29.902Z,106.67
2018-03-03T08:11:57.408Z,95.20
2018-03-03T08:14:26.661Z,103.63
2018-03-03T08:16:54.175Z,103.67
2018-03-03T08:19:22.428Z,97.57
2018-03-03T08:21:49.935Z,97.37
2018-03-03T08:24:17.427Z,104.93
2018-03-03T08:26:44.936Z,110.40
2018-03-03T08:29:12.421Z,99.67
2018-03-03T08:31:39.916Z,110.00
2018-03-03T08:34:08.183Z,99.73
2018-03-03T08:36:35.663Z,97.83
2018-03-03T08:39:03.174Z,107.67
2018-03-03T08:41:30.662Z,113.67
2018-03-03T08:43:58.222Z,110.90
2018-03-03T08:46:25.664Z,103.07
2018-03-03T08:48:53.940Z,107.90
2018-03-03T08:51:21.432Z,104.17
2018-03-03T08:53:48.963Z,109.00
2018-03-03T08:56:16.772Z,116.80
2018-03-03T08:58:45.041Z,111.83
2018-03-03T09:01:12.548Z,121.23
2018-03-03T09:03:40.031Z,111.90
2018-03-03T09:06:07.536Z,107.67
2018-03-03T09:08:35.029Z,143.80
2018-03-03T09:11:03.308Z,119.17
2018-03-03T09:13:30.800Z,111.97
2018-03-03T09:15:58.316Z,124.90
2018-03-03T09:18:25.790Z,112.10
2018-03-03T09:20:53.297Z,109.87
2018-03-03T09:23:20.811Z,119.47
2018-03-03T09:25:48.636Z,110.03
2018-03-03T09:28:16.115Z,112.73
2018-03-03T09:30:43.596Z,152.43
2018-03-03T09:33:11.867Z,112.47
2018-03-03T09:35:39.347Z,116.13
2018-03-03T09:38:07.620Z,113.33
2018-03-03T09:40:35.104Z,103.80
2018-03-03T09:43:10.092Z,116.43
2018-03-03T09:45:38.352Z,109.03
2018-03-03T09:48:06.629Z,116.97
2018-03-03T09:50:34.893Z,110.53
2018-03-03T09:53:02.391Z,106.97
2018-03-03T09:55:30.648Z,107.67
2018-03-03T09:57:58.135Z,108.33
2018-03-03T10:00:25.638Z,97.13
2018-03-03T10:02:53.130Z,120.83
2018-03-03T10:05:20.689Z,182.80
2018-03-03T10:07:48.203Z,114.87
2018-03-03T10:10:15.765Z,109.87
2018-03-03T10:12:43.259Z,119.07
2018-03-03T10:15:11.561Z,121.50
2018-03-03T10:17:39.855Z,106.80
2018-03-03T10:20:08.169Z,115.10
2018-03-03T10:22:35.672Z,102.67
2018-03-03T10:25:03.185Z,116.50
2018-03-03T10:27:31.496Z,112.70
2018-03-03T10:29:59.273Z,117.97
2018-03-03T10:32:26.871Z,112.00
2018-03-03T10:34:54.419Z,97.17
2018-03-03T10:37:21.954Z,103.47
2018-03-03T10:39:50.274Z,110.17
2018-03-03T10:42:17.774Z,94.80
2018-03-03T10:44:45.275Z,113.37
2018-03-03T10:47:12.755Z,102.53
2018-03-03T10:49:41.072Z,118.07
2018-03-03T10:52:09.388Z,118.33
2018-03-03T10:54:36.885Z,114.20
2018-03-03T10:57:04.415Z,139.17
2018-03-03T10:59:32.823Z,123.27
2018-03-03T11:02:00.332Z,101.33
2018-03-03T11:04:31.852Z,114.67
2018-03-03T11:06:59.351Z,110.00
2018-03-03T11:09:26.828Z,104.70
2018-03-03T11:11:54.336Z,113.83
2018-03-03T11:14:21.824Z,103.20
2018-03-03T11:16:49.335Z,109.67
2018-03-03T11:19:16.819Z,109.53
2018-03-03T11:21:44.324Z,137.83
2018-03-03T11:24:11.829Z,124.60
2018-03-03T11:26:39.330Z,127.17
2018-03-03T11:29:06.815Z,100.27
2018-03-03T11:31:35.083Z,103.93
2018-03-03T11:34:02.571Z,106.50
2018-03-03T11:36:30.843Z,106.97
2018-03-03T11:38:58.322Z,115.70
2018-03-03T11:41:26.595Z,99.77
2018-03-03T11:43:54.090Z,114.73
2018-03-03T11:46:21.606Z,109.63
2018-03-03T11:48:49.096Z,110.07
2018-03-03T11:51:16.604Z,112.13
2018-03-03T11:53:45.205Z,111.87
2018-03-03T11:56:12.680Z,99.57
2018-03-03T11:58:40.186Z,108.53
2018-03-03T12:01:07.667Z,107.43
2018-03-03T12:03:35.169Z,110.60
2018-03-03T12:06:03.424Z,104.70
2018-03-03T12:08:30.989Z,108.87
2018-03-03T12:10:58.460Z,106.40
2018-03-03T12:13:25.971Z,99.87
2018-03-03T12:15:54.232Z,102.17
2018-03-03T12:18:21.745Z,90.70
2018-03-03T12:20:49.236Z,101.20
2018-03-03T12:23:16.740Z,97.83
2018-03-03T12:25:44.609Z,98.67
2018-03-03T12:28:22.577Z,100.50
2018-03-03T12:30:50.065Z,100.10
2018-03-03T12:33:17.582Z,103.50
2018-03-03T12:35:45.095Z,102.20
2018-03-03T12:38:12.584Z,106.97
2018-03-03T12:40:40.069Z,95.70
2018-03-03T12:43:07.577Z,115.63
2018-03-03T12:45:35.062Z,105.97
2018-03-03T12:48:03.340Z,98.27
2018-03-03T12:50:31.600Z,99.27
2018-03-03T12:52:59.126Z,94.27
2018-03-03T12:55:27.376Z,92.67
2018-03-03T12:57:55.654Z,92.30
2018-03-03T13:00:23.169Z,103.80
2018-03-03T13:02:50.660Z,104.10
2018-03-03T13:05:18.159Z,87.07
2018-03-03T13:07:45.639Z,94.03
2018-03-03T13:10:13.136Z,91.77
2018-03-03T13:12:41.411Z,87.13
2018-03-03T13:15:08.916Z,101.90
2018-03-03T13:17:39.428Z,105.43
2018-03-03T13:20:07.695Z,96.97
2018-03-03T13:22:35.184Z,93.77
2018-03-03T13:25:03.459Z,93.40
2018-03-03T13:27:31.002Z,95.17
2018-03-03T13:29:58.472Z,89.90
2018-03-03T13:32:25.957Z,91.27
2018-03-03T13:34:53.478Z,79.50
2018-03-03T13:37:20.975Z,87.90
2018-03-03T13:39:48.498Z,97.73
2018-03-03T13:42:16.760Z,93.10
2018-03-03T13:44:44.272Z,86.17
2018-03-03T13:47:11.760Z,91.63
2018-03-03T13:50:00.678Z,93.13
2018-03-03T13:52:28.172Z,91.77
2018-03-03T13:54:56.441Z,81.20
2018-03-03T13:57:23.953Z,82.33
2018-03-03T13:59:51.440Z,99.80
2018-03-03T14:02:18.949Z,106.13
2018-03-03T14:04:46.435Z,81.93
2018-03-03T14:07:13.964Z,86.10
2018-03-03T14:09:41.455Z,82.07
2018-03-03T14:12:08.979Z,85.20
2018-03-03T14:14:40.168Z,86.67
2018-03-03T14:17:07.800Z,88.77
2018-03-03T14:19:35.279Z,83.60
2018-03-03T14:22:02.797Z,81.23
2018-03-03T14:24:30.297Z,116.53
2018-03-03T14:26:58.563Z,89.00
2018-03-03T14:29:26.074Z,90.67
2018-03-03T14:31:53.590Z,84.50
2018-03-03T14:34:21.081Z,84.60
2018-03-03T14:36:48.580Z,93.20
2018-03-03T14:39:16.062Z,85.73
2018-03-03T14:41:43.585Z,104.37
2018-03-03T14:44:11.099Z,97.90
2018-03-03T14:46:38.618Z,96.87
2018-03-03T14:49:06.165Z,91.53
2018-03-03T14:51:33.664Z,83.80
2018-03-03T14:54:01.188Z,85.13
2018-03-03T14:56:28.695Z,85.33
2018-03-03T14:58:56.264Z,94.60
2018-03-03T15:01:23.771Z,80.67
2018-03-03T15:03:51.352Z,93.03
2018-03-03T15:06:18.852Z,86.97
2018-03-03T15:08:46.355Z,87.27
2018-03-03T15:11:13.844Z,86.13
2018-03-03T15:13:41.356Z,84.03
2018-03-03T15:16:08.846Z,82.20
2018-03-03T15:18:40.016Z,79.47
2018-03-03T15:21:07.496Z,92.43
2018-03-03T15:23:34.999Z,88.60
2018-03-03T15:26:03.252Z,88.33
2018-03-03T15:28:30.770Z,80.87
2018-03-03T15:31:01.352Z,79.40
2018-03-03T15:33:28.855Z,96.80
2018-03-03T15:35:56.340Z,88.23
2018-03-03T15:38:23.865Z,97.30
2018-03-03T15:40:51.357Z,105.97
2018-03-03T15:43:18.871Z,125.30
2018-03-03T15:45:46.359Z,89.13
2018-03-03T15:48:13.866Z,96.13
2018-03-03T15:50:41.351Z,96.67
2018-03-03T15:53:09.596Z,92.43
2018-03-03T15:55:37.104Z,92.27
2018-03-03T15:58:05.352Z,87.07
2018-03-03T16:00:32.855Z,88.07
2018-03-03T16:03:00.336Z,87.00
2018-03-03T16:05:28.623Z,82.03
2018-03-03T16:07:56.104Z,89.20
2018-03-03T16:10:24.367Z,93.03
2018-03-03T16:12:51.857Z,92.80
2018-03-03T16:15:24.207Z,83.77
2018-03-03T16:17:51.696Z,82.57
2018-03-03T16:20:19.194Z,92.83
2018-03-03T16:22:46.703Z,91.93
2018-03-03T16:25:14.220Z,129.70
2018-03-03T16:27:41.700Z,99.17
2018-03-03T16:30:11.900Z,91.60
2018-03-03T16:32:39.384Z,90.77
2018-03-03T16:35:06.892Z,86.87
2018-03-03T16:37:34.376Z,91.70
2018-03-03T16:40:02.241Z,93.60
2018-03-03T16:42:31.688Z,93.63
2018-03-03T16:44:59.254Z,95.40
2018-03-03T16:47:26.712Z,90.93
2018-03-03T16:49:54.226Z,87.73
2018-03-03T16:52:21.956Z,96.37
2018-03-03T16:54:49.514Z,91.40
2018-03-03T16:57:17.017Z,109.53
2018-03-03T16:59:44.613Z,106.60
2018-03-03T17:02:12.222Z,93.13
2018-03-03T17:04:39.748Z,97.13
2018-03-03T17:07:07.318Z,89.37
2018-03-03T17:09:34.808Z,91.80
2018-03-03T17:12:02.331Z,119.37
2018-03-03T17:14:29.824Z,112.50
2018-03-03T17:16:57.363Z,100.13
2018-03-03T17:19:24.857Z,91.47
2018-03-03T17:21:52.372Z,95.10
2018-03-03T17:24:20.650Z,90.63
2018-03-03T17:26:49.049Z,95.43
2018-03-03T17:29:16.589Z,108.07
2018-03-03T17:31:44.122Z,104.00
2018-03-03T17:34:11.652Z,93.90
2018-03-03T17:36:39.196Z,94.70
2018-03-03T17:39:06.708Z,96.67
2018-03-03T17:41:34.979Z,96.60
2018-03-03T17:44:02.472Z,111.83
2018-03-03T17:46:30.752Z,104.87
2018-03-03T17:48:59.024Z,105.03
2018-03-03T17:51:26.546Z,115.00
2018-03-03T17:53:54.040Z,101.47
2018-03-03T17:56:21.560Z,98.47
2018-03-03T17:58:49.816Z,112.07
2018-03-03T18:01:17.298Z,101.57
2018-03-03T18:03:44.820Z,104.30
2018-03-03T18:06:12.324Z,110.87
2018-03-03T18:08:39.827Z,105.33
2018-03-03T18:11:08.124Z,111.50
2018-03-03T18:13:35.636Z,100.40
2018-03-03T18:16:03.120Z,95.50
2018-03-03T18:18:30.636Z,101.90
2018-03-03T18:20:58.136Z,105.40
2018-03-03T18:23:25.635Z,104.87
2018-03-03T18:25:53.133Z,107.70
2018-03-03T18:28:21.407Z,106.97
2018-03-03T18:30:48.937Z,98.13
2018-03-03T18:33:16.447Z,108.20
2018-03-03T18:35:43.949Z,104.47
2018-03-03T18:38:11.464Z,112.90
2018-03-03T18:40:38.955Z,115.30
2018-03-03T18:43:06.477Z,107.47
2018-03-03T18:45:33.965Z,114.43
2018-03-03T18:48:01.481Z,114.20
2018-03-03T18:50:29.731Z,119.83
2018-03-03T18:52:57.240Z,115.60
2018-03-03T18:55:25.497Z,108.90
2018-03-03T18:57:53.007Z,115.10
2018-03-03T19:00:21.265Z,122.17
2018-03-03T19:02:48.848Z,114.20
2018-03-03T19:05:17.135Z,111.90
2018-03-03T19:07:44.618Z,118.63
2018-03-03T19:10:12.908Z,113.67
2018-03-03T19:12:41.169Z,111.97
2018-03-03T19:15:08.706Z,107.67
2018-03-03T19:17:36.190Z,116.03
2018-03-03T19:20:03.691Z,117.80
2018-03-03T19:22:31.183Z,120.70
2018-03-03T19:24:59.470Z,111.50
2018-03-03T19:27:27.731Z,111.20
2018-03-03T19:29:55.248Z,113.57
2018-03-03T19:32:22.754Z,110.03
2018-03-03T19:34:50.268Z,117.83
2018-03-03T19:37:18.532Z,115.40
2018-03-03T19:39:46.192Z,107.83
2018-03-03T19:42:13.690Z,122.23
2018-03-03T19:44:41.233Z,117.43
2018-03-03T19:47:08.736Z,115.43
2018-03-03T19:49:36.250Z,120.40
2018-03-03T19:52:03.748Z,109.07
2018-03-03T19:54:31.268Z,115.57
2018-03-03T19:56:58.764Z,119.10
2018-03-03T19:59:26.272Z,109.50
2018-03-03T20:01:53.779Z,113.23
2018-03-03T20:04:21.292Z,114.47
2018-03-03T20:06:48.778Z,106.73
2018-03-03T20:09:16.310Z,118.17
2018-03-03T20:11:43.796Z,110.97
2018-03-03T20:14:11.304Z,119.37
2018-03-03T20:16:39.577Z,117.33
2018-03-03T20:19:07.083Z,114.23
2018-03-03T20:21:35.335Z,125.63
2018-03-03T20:24:02.844Z,115.83
2018-03-03T20:26:31.105Z,117.27
2018-03-03T20:28:58.620Z,119.10
2018-03-03T20:31:26.109Z,123.00
2018-03-03T20:33:53.661Z,118.70
2018-03-03T20:36:21.165Z,118.47
2018-03-03T20:38:48.696Z,120.37
2018-03-03T20:41:16.188Z,119.50
2018-03-03T20:43:43.682Z,117.20
2018-03-03T20:46:11.208Z,128.13
2018-03-03T20:48:38.700Z,133.00
2018-03-03T20:51:06.210Z,121.83
2018-03-03T20:53:33.697Z,114.30
2018-03-03T20:56:01.980Z,125.83
2018-03-03T20:58:29.485Z,124.83
2018-03-03T21:00:56.998Z,127.50
2018-03-03T21:03:24.496Z,124.57
2018-03-03T21:05:52.776Z,127.97
2018-03-03T21:08:20.263Z,121.50
2018-03-03T21:10:48.544Z,132.50
2018-03-03T21:13:16.801Z,114.70
2018-03-03T21:15:44.317Z,116.67
2018-03-03T21:18:11.806Z,119.63
2018-03-03T21:20:39.311Z,132.50
2018-03-03T21:23:06.799Z,120.23
2018-03-03T21:25:34.312Z,122.37
2018-03-03T21:28:01.809Z,118.83
2018-03-03T21:30:29.324Z,133.70
2018-03-03T21:32:57.575Z,118.90
2018-03-03T21:35:25.097Z,122.93
2018-03-03T21:37:52.596Z,120.00
2018-03-03T21:40:20.089Z,117.23
2018-03-03T21:42:47.628Z,135.77
2018-03-03T21:45:15.118Z,120.13
2018-03-03T21:47:42.623Z,117.77
2018-03-03T21:50:10.115Z,137.00
2018-03-03T21:52:38.398Z,119.10
2018-03-03T21:55:06.653Z,129.03
2018-03-03T21:57:34.169Z,129.40
2018-03-03T22:00:01.656Z,132.87
2018-03-03T22:02:29.161Z,129.07
2018-03-03T22:04:56.651Z,120.17
2018-03-03T22:07:24.155Z,137.03
2018-03-03T22:09:52.428Z,124.73
2018-03-03T22:12:20.703Z,132.37
2018-03-03T22:14:48.957Z,137.10
2018-03-03T22:17:16.476Z,131.73
2018-03-03T22:19:44.729Z,125.30
2018-03-03T22:22:12.240Z,136.97
2018-03-03T22:24:39.732Z,132.37
2018-03-03T22:27:07.228Z,132.70
2018-03-03T22:29:34.742Z,134.63
2018-03-03T22:32:03.005Z,133.27
2018-03-03T22:34:30.512Z,133.90
2018-03-03T22:36:58.000Z,130.97
2018-03-03T22:39:25.507Z,125.63
2018-03-03T22:41:52.996Z,125.87
2018-03-03T22:44:20.496Z,125.83
2018-03-03T22:46:47.983Z,126.47
2018-03-03T22:49:15.493Z,132.53
2018-03-03T22:51:43.579Z,139.27
2018-03-03T22:54:11.088Z,153.77
2018-03-03T22:56:38.575Z,153.77
2018-03-03T22:59:06.088Z,127.13
2018-03-03T23:01:33.581Z,130.63
2018-03-03T23:04:01.106Z,127.10
2018-03-03T23:06:28.596Z,148.73
2018-03-03T23:08:56.117Z,127.93
2018-03-03T23:11:23.604Z,131.50
2018-03-03T23:13:51.111Z,128.67
2018-03-03T23:16:20.619Z,133.93
2018-03-03T23:18:48.110Z,126.03
2018-03-03T23:21:15.619Z,120.80
2018-03-03T23:23:43.119Z,130.93
2018-03-03T23:26:10.636Z,126.70
2018-03-03T23:28:38.891Z,137.20
2018-03-03T23:31:06.439Z,119.53
2018-03-03T23:33:33.894Z,125.37
2018-03-03T23:36:01.408Z,134.47
2018-03-03T23:38:28.911Z,122.57
2018-03-03T23:40:56.419Z,232.83
2018-03-03T23:43:23.908Z,239.77
2018-03-03T23:45:51.412Z,132.30
2018-03-03T23:48:19.672Z,109.67
2018-03-03T23:50:47.179Z,128.80
2018-03-03T23:53:15.434Z,116.50
2018-03-03T23:55:42.956Z,113.07
2018-03-03T23:58:10.453Z,126.77
